Time;durP1;ratioP1;P1;durP2;ratioP2;P2;SDS_P1;SDS_P2;PMS_P1;PMS_P2;Temp;Humidity;BMP_temperature;BMP_pressure;BME280_temperature;BME280_humidity;BME280_pressure;Samples;Min_cycle;Max_cycle;Signal;HPM_P1;HPM_P2
2021/06/10 00:00:43;;;;;;;0.90;0.90;;;;;;;-148.58;100.00;55229.56;5013124;28;20496;-60
2021/06/10 00:03:08;;;;;;;2.00;1.10;;;;;;;-148.58;100.00;55229.56;5013272;28;20022;-60
2021/06/10 00:05:34;;;;;;;1.20;0.93;;;;;;;-148.58;100.00;55229.56;5013160;28;20025;-60
2021/06/10 00:08:00;;;;;;;1.38;0.93;;;;;;;-148.58;100.00;55229.56;5013330;28;20057;-59
2021/06/10 00:10:28;;;;;;;1.02;0.90;;;;;;;-148.58;100.00;55229.56;5013203;28;20029;-60
2021/06/10 00:12:54;;;;;;;1.15;1.05;;;;;;;-148.58;100.00;55229.56;5012357;28;20030;-60
2021/06/10 00:15:27;;;;;;;1.10;1.00;;;;;;;-148.58;100.00;55229.56;5013166;28;20029;-60
2021/06/10 00:17:52;;;;;;;1.05;0.90;;;;;;;-148.58;100.00;55229.56;5012772;28;20034;-61
2021/06/10 00:20:20;;;;;;;0.57;0.57;;;;;;;-148.58;100.00;55229.56;4995473;28;20024;-59
2021/06/10 00:22:45;;;;;;;1.08;1.00;;;;;;;-148.58;100.00;55229.56;5012742;28;20061;-59
2021/06/10 00:25:11;;;;;;;1.08;0.98;;;;;;;-148.58;100.00;55229.56;5012937;28;20053;-60
2021/06/10 00:27:38;;;;;;;1.23;1.13;;;;;;;-148.58;100.00;55229.56;5012766;28;20030;-60
2021/06/10 00:30:17;;;;;;;0.93;0.90;;;;;;;-148.58;100.00;55229.56;5012775;28;20479;-59
2021/06/10 00:32:48;;;;;;;1.25;0.80;;;;;;;-148.58;100.00;55229.56;5012695;28;20389;-60
2021/06/10 00:35:15;;;;;;;1.23;1.00;;;;;;;-148.58;100.00;55229.56;5013166;28;20033;-60
2021/06/10 00:37:40;;;;;;;0.70;0.70;;;;;;;-148.58;100.00;55229.56;5012670;28;20029;-60
2021/06/10 00:40:08;;;;;;;1.27;1.05;;;;;;;-148.58;100.00;55229.56;5012714;28;20489;-60
2021/06/10 00:42:33;;;;;;;1.30;1.20;;;;;;;-148.58;100.00;55229.56;5012684;28;20034;-59
2021/06/10 00:44:59;;;;;;;1.42;1.30;;;;;;;-148.58;100.00;55229.56;5012520;28;20042;-60
2021/06/10 00:47:24;;;;;;;1.52;1.00;;;;;;;-148.58;100.00;55229.56;5012803;28;20397;-60
2021/06/10 00:49:50;;;;;;;1.30;1.20;;;;;;;-148.58;100.00;55229.56;5012442;28;20036;-60
2021/06/10 00:52:15;;;;;;;0.77;0.77;;;;;;;-148.58;100.00;55229.56;5012668;28;20080;-60
2021/06/10 00:54:41;;;;;;;1.52;1.00;;;;;;;-148.58;100.00;55229.56;5012421;28;20026;-59
2021/06/10 00:57:07;;;;;;;0.90;0.90;;;;;;;-148.58;100.00;55229.56;5012916;28;20465;-60
2021/06/10 00:59:33;;;;;;;1.00;0.90;;;;;;;-148.58;100.00;55229.56;5012571;28;20048;-61
2021/06/10 01:01:59;;;;;;;1.15;1.00;;;;;;;-148.58;100.00;55229.56;5012433;28;20041;-59
2021/06/10 01:04:25;;;;;;;1.25;1.15;;;;;;;-148.58;100.00;55229.56;5012573;28;20520;-60
2021/06/10 01:07:10;;;;;;;1.10;1.00;;;;;;;-148.58;100.00;55229.56;5012464;28;20040;-60
2021/06/10 01:09:50;;;;;;;1.13;1.02;;;;;;;-148.58;100.00;55229.56;5012511;28;20034;-60
2021/06/10 01:12:26;;;;;;;0.80;0.80;;;;;;;-148.58;100.00;55229.56;5012545;28;20030;-59
2021/06/10 01:15:08;;;;;;;1.05;0.90;;;;;;;-148.58;100.00;55229.56;5012339;28;20030;-60
2021/06/10 01:17:42;;;;;;;1.05;0.88;;;;;;;-148.58;100.00;55229.56;5012435;28;20034;-59
2021/06/10 01:20:14;;;;;;;0.80;0.80;;;;;;;-148.58;100.00;55229.56;5012402;28;20049;-60
2021/06/10 01:22:55;;;;;;;1.10;1.08;;;;;;;-148.58;100.00;55229.56;5012307;28;20061;-60
2021/06/10 01:25:33;;;;;;;0.90;0.90;;;;;;;-148.58;100.00;55229.56;5014928;28;20052;-60
2021/06/10 01:28:15;;;;;;;1.30;1.17;;;;;;;-148.58;100.00;55229.56;5016502;28;20024;-59
2021/06/10 01:30:48;;;;;;;1.20;0.93;;;;;;;-148.58;100.00;55229.56;5015902;28;20461;-60
2021/06/10 01:33:18;;;;;;;1.30;1.00;;;;;;;-148.58;100.00;55229.56;4998331;28;20026;-60
2021/06/10 01:35:51;;;;;;;1.67;1.30;;;;;;;-148.58;100.00;55229.56;5015715;28;20033;-60
2021/06/10 01:38:17;;;;;;;2.05;1.10;;;;;;;-148.58;100.00;55229.56;5015925;28;20542;-60
2021/06/10 01:40:43;;;;;;;0.85;0.85;;;;;;;-148.58;100.00;55229.56;5015696;28;20030;-60
2021/06/10 01:43:10;;;;;;;1.20;1.10;;;;;;;-148.58;100.00;55229.56;5015590;28;20038;-60
2021/06/10 01:45:36;;;;;;;1.90;1.25;;;;;;;-148.58;100.00;55229.56;5015653;28;20048;-59
2021/06/10 01:48:02;;;;;;;1.15;0.85;;;;;;;-148.58;100.00;55229.56;5015588;28;20042;-60
2021/06/10 01:50:28;;;;;;;0.88;0.88;;;;;;;-148.58;100.00;55229.56;5015758;28;20440;-59
2021/06/10 01:52:55;;;;;;;1.00;1.00;;;;;;;-148.58;100.00;55229.56;5013997;28;20025;-60
2021/06/10 01:55:23;;;;;;;0.90;0.88;;;;;;;-148.58;100.00;55229.56;5015621;28;20034;-61
2021/06/10 01:57:50;;;;;;;1.10;1.00;;;;;;;-148.58;100.00;55229.56;5015189;28;20437;-60
2021/06/10 02:00:16;;;;;;;1.52;1.10;;;;;;;-148.58;100.00;55229.56;5015504;28;20457;-59
2021/06/10 02:02:44;;;;;;;1.10;1.00;;;;;;;-148.58;100.00;55229.56;5015227;28;20041;-60
2021/06/10 02:05:11;;;;;;;1.05;1.00;;;;;;;-148.58;100.00;55229.56;5015413;28;20026;-60
2021/06/10 02:07:41;;;;;;;1.50;0.93;;;;;;;-148.58;100.00;55229.56;5015288;28;20021;-59
2021/06/10 02:10:09;;;;;;;0.80;0.80;;;;;;;-148.58;100.00;55229.56;5015497;28;20400;-60
2021/06/10 02:12:34;;;;;;;1.15;0.65;;;;;;;-148.58;100.00;55229.56;5013903;28;20025;-61
2021/06/10 02:15:06;;;;;;;1.20;1.10;;;;;;;-148.58;100.00;55229.56;5015117;28;20026;-60
2021/06/10 02:17:32;;;;;;;1.10;1.00;;;;;;;-148.58;100.00;55229.56;5015117;28;20061;-61
2021/06/10 02:19:58;;;;;;;2.10;1.30;;;;;;;-148.58;100.00;55229.56;5014962;28;20041;-60
2021/06/10 02:22:23;;;;;;;1.00;0.90;;;;;;;-148.58;100.00;55229.56;5015093;28;20026;-60
2021/06/10 02:24:49;;;;;;;1.25;0.88;;;;;;;-148.58;100.00;55229.56;5014920;28;20018;-60
2021/06/10 02:27:14;;;;;;;1.25;0.80;;;;;;;-148.58;100.00;55229.56;5014993;28;20027;-60
2021/06/10 02:29:40;;;;;;;0.85;0.85;;;;;;;-148.58;100.00;55229.56;5015082;28;20028;-60
2021/06/10 02:32:06;;;;;;;1.77;0.90;;;;;;;-148.58;100.00;55229.56;5014812;28;20033;-59
2021/06/10 02:34:31;;;;;;;0.85;0.73;;;;;;;-148.58;100.00;55229.56;5014274;28;20069;-60
2021/06/10 02:36:57;;;;;;;1.42;0.82;;;;;;;-148.58;100.00;55229.56;5014458;28;20029;-60
2021/06/10 02:39:22;;;;;;;1.30;0.73;;;;;;;-148.58;100.00;55229.56;5014815;28;20033;-60
2021/06/10 02:41:51;;;;;;;0.75;0.75;;;;;;;-148.58;100.00;55229.56;5014396;28;20034;-61
2021/06/10 02:44:16;;;;;;;1.65;0.93;;;;;;;-148.58;100.00;55229.56;5014550;28;20055;-59
2021/06/10 02:46:42;;;;;;;1.50;0.80;;;;;;;-148.58;100.00;55229.56;5014427;28;20021;-60
2021/06/10 02:49:10;;;;;;;0.60;0.60;;;;;;;-148.58;100.00;55229.56;5014894;28;20041;-60
2021/06/10 02:51:36;;;;;;;1.02;0.95;;;;;;;-148.58;100.00;55229.56;5014495;28;20022;-60
2021/06/10 02:54:05;;;;;;;1.08;0.90;;;;;;;-148.58;100.00;55229.56;5014292;28;20025;-59
2021/06/10 02:56:32;;;;;;;0.70;0.63;;;;;;;-148.58;100.00;55229.56;5014367;28;20458;-59
2021/06/10 02:59:02;;;;;;;0.80;0.73;;;;;;;-148.58;100.00;55229.56;5014356;28;20022;-60
2021/06/10 03:01:31;;;;;;;0.85;0.70;;;;;;;-148.58;100.00;55229.56;5014420;28;20045;-60
2021/06/10 03:03:57;;;;;;;0.90;0.60;;;;;;;-148.58;100.00;55229.56;5014075;28;20056;-59
2021/06/10 03:06:24;;;;;;;0.68;0.68;;;;;;;-148.58;100.00;55229.56;5014272;28;20477;-60
2021/06/10 03:08:51;;;;;;;0.82;0.70;;;;;;;-148.58;100.00;55229.56;5014085;28;20473;-61
2021/06/10 03:11:18;;;;;;;0.60;0.60;;;;;;;-148.58;100.00;55229.56;5014192;28;20465;-60
2021/06/10 03:13:44;;;;;;;0.98;0.80;;;;;;;-148.58;100.00;55229.56;5013896;28;20025;-60
2021/06/10 03:16:11;;;;;;;0.73;0.52;;;;;;;-148.58;100.00;55229.56;5013833;28;20040;-59
2021/06/10 03:18:37;;;;;;;1.00;0.63;;;;;;;-148.58;100.00;55229.56;5013926;28;20061;-60
2021/06/10 03:21:05;;;;;;;0.68;0.68;;;;;;;-148.58;100.00;55229.56;5013977;28;20049;-60
2021/06/10 03:23:31;;;;;;;0.70;0.50;;;;;;;-148.58;100.00;55229.56;5013930;28;20389;-60
2021/06/10 03:26:00;;;;;;;0.73;0.57;;;;;;;-148.58;100.00;55229.56;5013717;28;20029;-60
2021/06/10 03:28:25;;;;;;;0.50;0.38;;;;;;;-148.58;100.00;55229.56;5013871;28;20056;-60
2021/06/10 03:30:51;;;;;;;0.57;0.57;;;;;;;-148.58;100.00;55229.56;5013683;28;20034;-60
2021/06/10 03:33:17;;;;;;;0.50;0.50;;;;;;;-148.58;100.00;55229.56;5013726;28;20022;-60
2021/06/10 03:35:44;;;;;;;0.95;0.60;;;;;;;-148.58;100.00;55229.56;5013614;28;20032;-60
2021/06/10 03:38:13;;;;;;;0.73;0.45;;;;;;;-148.58;100.00;55229.56;5013660;28;20025;-60
2021/06/10 03:40:38;;;;;;;0.77;0.40;;;;;;;-148.58;100.00;55229.56;5013476;28;20069;-60
2021/06/10 03:43:04;;;;;;;0.40;0.40;;;;;;;-148.58;100.00;55229.56;5013376;28;20061;-59
2021/06/10 03:45:30;;;;;;;0.52;0.40;;;;;;;-148.58;100.00;55229.56;5013587;28;20026;-61
2021/06/10 03:47:56;;;;;;;1.40;0.40;;;;;;;-148.58;100.00;55229.56;5012465;28;20029;-59
2021/06/10 03:50:22;;;;;;;1.08;0.60;;;;;;;-148.58;100.00;55229.56;5013532;28;20135;-60
2021/06/10 03:52:48;;;;;;;0.38;0.30;;;;;;;-148.58;100.00;55229.56;5013241;28;20029;-61
2021/06/10 03:55:14;;;;;;;0.30;0.30;;;;;;;-148.58;100.00;55229.56;5012074;28;20065;-60
2021/06/10 03:57:39;;;;;;;1.17;0.43;;;;;;;-148.58;100.00;55229.56;5013157;28;20018;-60
2021/06/10 04:00:07;;;;;;;0.40;0.40;;;;;;;-148.58;100.00;55229.56;5013238;28;20439;-60
2021/06/10 04:02:32;;;;;;;1.15;0.40;;;;;;;-148.58;100.00;55229.56;5013323;28;20033;-60
2021/06/10 04:04:57;;;;;;;0.73;0.40;;;;;;;-148.58;100.00;55229.56;5013085;28;20018;-60
2021/06/10 04:07:23;;;;;;;0.60;0.40;;;;;;;-148.58;100.00;55229.56;5013286;28;20485;-60
2021/06/10 04:09:48;;;;;;;0.55;0.32;;;;;;;-148.58;100.00;55229.56;5012917;28;20026;-61
2021/06/10 04:12:14;;;;;;;0.40;0.40;;;;;;;-148.58;100.00;55229.56;5013122;28;20105;-60
2021/06/10 04:14:39;;;;;;;0.80;0.20;;;;;;;-148.58;100.00;55229.56;5012890;28;20496;-60
2021/06/10 04:17:05;;;;;;;1.02;0.55;;;;;;;-148.58;100.00;55229.56;5013029;28;20026;-61
2021/06/10 04:19:30;;;;;;;0.20;0.20;;;;;;;-148.58;100.00;55229.56;5013112;28;20049;-60
2021/06/10 04:21:55;;;;;;;0.68;0.52;;;;;;;-148.58;100.00;55229.56;5012747;28;20021;-60
2021/06/10 04:24:20;;;;;;;0.45;0.22;;;;;;;-148.58;100.00;55229.56;5013002;28;20039;-60
2021/06/10 04:26:47;;;;;;;0.95;0.40;;;;;;;-148.58;100.00;55229.56;5012725;28;20025;-61
2021/06/10 04:29:12;;;;;;;0.65;0.30;;;;;;;-148.58;100.00;55229.56;5012916;28;20037;-61
2021/06/10 04:31:37;;;;;;;1.65;0.32;;;;;;;-148.58;100.00;55229.56;5012714;28;20080;-61
2021/06/10 04:34:03;;;;;;;0.70;0.38;;;;;;;-148.58;100.00;55229.56;5012685;28;20029;-61
2021/06/10 04:36:28;;;;;;;1.58;0.43;;;;;;;-148.58;100.00;55229.56;5012873;28;20354;-61
2021/06/10 04:38:53;;;;;;;1.08;0.15;;;;;;;-148.58;100.00;55229.56;5012616;28;20424;-61
2021/06/10 04:41:19;;;;;;;0.20;0.10;;;;;;;-148.58;100.00;55229.56;5012796;28;20026;-61
2021/06/10 04:43:44;;;;;;;0.30;0.10;;;;;;;-148.58;100.00;55229.56;5012448;28;20042;-60
2021/06/10 04:46:09;;;;;;;0.38;0.10;;;;;;;-148.58;100.00;55229.56;5012701;28;20101;-60
2021/06/10 04:48:37;;;;;;;0.15;0.10;;;;;;;-148.58;100.00;55229.56;5012683;28;20033;-61
2021/06/10 04:51:02;;;;;;;0.30;0.20;;;;;;;-148.58;100.00;55229.56;5012701;28;20022;-60
2021/06/10 04:53:28;;;;;;;0.47;0.20;;;;;;;-148.58;100.00;55229.56;5012651;28;20109;-60
2021/06/10 04:55:53;;;;;;;1.38;0.50;;;;;;;-148.58;100.00;55229.56;5012316;28;20025;-61
2021/06/10 04:58:18;;;;;;;0.32;0.20;;;;;;;-148.58;100.00;55229.56;5013696;28;20083;-60
2021/06/10 05:00:44;;;;;;;0.13;0.10;;;;;;;-148.58;100.00;55229.56;5015463;28;20026;-61
2021/06/10 05:03:09;;;;;;;0.95;0.20;;;;;;;-148.58;100.00;55229.56;5016623;28;20029;-60
2021/06/10 05:05:35;;;;;;;0.40;0.15;;;;;;;-148.58;100.00;55229.56;5016666;28;20026;-61
2021/06/10 05:08:01;;;;;;;0.15;0.10;;;;;;;-148.58;100.00;55229.56;5016317;28;20148;-61
2021/06/10 05:10:27;;;;;;;1.27;0.35;;;;;;;-148.58;100.00;55229.56;5016504;28;20488;-61
2021/06/10 05:12:52;;;;;;;0.20;0.10;;;;;;;-148.58;100.00;55229.56;4998630;28;20026;-61
2021/06/10 05:15:18;;;;;;;0.50;0.30;;;;;;;-148.58;100.00;55229.56;5016286;28;20380;-60
2021/06/10 05:17:43;;;;;;;0.32;0.10;;;;;;;-148.58;100.00;55229.56;4998489;28;20033;-61
2021/06/10 05:20:09;;;;;;;0.43;0.05;;;;;;;-148.58;100.00;55229.56;5016172;28;20655;-60
2021/06/10 05:22:35;;;;;;;0.35;0.20;;;;;;;-148.58;100.00;55229.56;5016106;28;20025;-61
2021/06/10 05:25:01;;;;;;;0.38;0.20;;;;;;;-148.58;100.00;55229.56;5016074;28;20028;-60
2021/06/10 05:27:26;;;;;;;0.15;0.10;;;;;;;-148.58;100.00;55229.56;5016110;28;20030;-60
2021/06/10 05:29:51;;;;;;;0.32;0.20;;;;;;;-148.58;100.00;55229.56;5015846;28;20457;-60
2021/06/10 05:32:17;;;;;;;0.85;0.20;;;;;;;-148.58;100.00;55229.56;5016001;28;20372;-61
2021/06/10 05:34:42;;;;;;;0.45;0.30;;;;;;;-148.58;100.00;55229.56;5015794;28;20120;-60
2021/06/10 05:37:07;;;;;;;0.77;0.20;;;;;;;-148.58;100.00;55229.56;5015928;28;20025;-60
2021/06/10 05:39:32;;;;;;;0.32;0.20;;;;;;;-148.58;100.00;55229.56;5015847;28;20117;-60
2021/06/10 05:41:58;;;;;;;0.70;0.20;;;;;;;-148.58;100.00;55229.56;5015582;28;20030;-60
2021/06/10 05:44:23;;;;;;;0.45;0.10;;;;;;;-148.58;100.00;55229.56;5015687;28;20494;-60
2021/06/10 05:46:49;;;;;;;0.40;0.20;;;;;;;-148.58;100.00;55229.56;5015573;28;20377;-60
2021/06/10 05:49:17;;;;;;;0.10;0.10;;;;;;;-148.58;100.00;55229.56;5016017;28;20041;-61
2021/06/10 05:51:43;;;;;;;0.40;0.05;;;;;;;-148.58;100.00;55229.56;5015490;28;20105;-61
2021/06/10 05:54:09;;;;;;;0.20;0.10;;;;;;;-148.58;100.00;55229.56;5015474;28;20104;-60
2021/06/10 05:56:34;;;;;;;0.10;0.10;;;;;;;-148.58;100.00;55229.56;5014574;28;20048;-61
2021/06/10 05:58:59;;;;;;;0.47;0.00;;;;;;;-148.58;100.00;55229.56;5015349;28;20034;-60
2021/06/10 06:01:25;;;;;;;0.17;0.17;;;;;;;-148.58;100.00;55229.56;4997525;28;20476;-60
2021/06/10 06:03:50;;;;;;;0.22;0.13;;;;;;;-148.58;100.00;55229.56;5011014;28;20043;-61
2021/06/10 06:06:18;;;;;;;1.17;0.20;;;;;;;-148.58;100.00;55229.56;5014675;28;20045;-60
2021/06/10 06:08:43;;;;;;;0.20;0.00;;;;;;;-148.58;100.00;55229.56;5014471;28;20097;-61
2021/06/10 06:11:09;;;;;;;0.95;0.10;;;;;;;-148.58;100.00;55229.56;5014123;28;20041;-60
2021/06/10 06:16:09;;;;;;;0.10;0.05;;;;;;;-148.58;100.00;55229.56;5015219;28;20038;-60
2021/06/10 06:18:34;;;;;;;0.38;0.13;;;;;;;-148.58;100.00;55229.56;5014671;28;20025;-61
2021/06/10 06:21:00;;;;;;;0.17;0.10;;;;;;;-148.58;100.00;55229.56;5014831;28;20378;-61
2021/06/10 06:23:26;;;;;;;0.10;0.00;;;;;;;-148.58;100.00;55229.56;5013443;28;20382;-61
2021/06/10 06:25:51;;;;;;;0.10;0.00;;;;;;;-148.58;100.00;55229.56;4998628;28;20262;-60
2021/06/10 06:28:16;;;;;;;1.13;0.22;;;;;;;-148.58;100.00;55229.56;4994034;28;20029;-60
2021/06/10 06:30:41;;;;;;;0.40;0.13;;;;;;;-148.58;100.00;55229.56;5012619;28;20018;-61
2021/06/10 06:33:07;;;;;;;0.43;0.10;;;;;;;-148.58;100.00;55229.56;5013034;28;20032;-60
2021/06/10 06:35:32;;;;;;;0.00;0.00;;;;;;;-148.58;100.00;55229.56;5011807;28;20069;-60
2021/06/10 06:37:57;;;;;;;0.32;0.10;;;;;;;-148.58;100.00;55229.56;5012761;28;20034;-61
2021/06/10 06:40:25;;;;;;;0.13;0.10;;;;;;;-148.58;100.00;55229.56;5013888;28;20040;-61
2021/06/10 06:42:51;;;;;;;0.00;0.00;;;;;;;-148.58;100.00;55229.56;5017831;28;20033;-60
2021/06/10 06:45:16;;;;;;;0.30;0.10;;;;;;;-148.58;100.00;55229.56;5014008;28;20018;-61
2021/06/10 06:47:41;;;;;;;0.10;0.10;;;;;;;-148.58;100.00;55229.56;5014130;28;20503;-61
2021/06/10 06:50:07;;;;;;;0.10;0.10;;;;;;;-148.58;100.00;55229.56;5013134;28;20032;-60
2021/06/10 06:52:32;;;;;;;0.10;0.00;;;;;;;-148.58;100.00;55229.56;5012206;28;20068;-61
2021/06/10 06:54:57;;;;;;;0.10;0.03;;;;;;;-148.58;100.00;55229.56;5011614;28;20489;-60
2021/06/10 06:57:23;;;;;;;0.10;0.10;;;;;;;-148.58;100.00;55229.56;5012780;28;20068;-60
2021/06/10 06:59:48;;;;;;;0.85;0.30;;;;;;;-148.58;100.00;55229.56;5011629;28;20053;-61
2021/06/10 07:02:13;;;;;;;0.13;0.10;;;;;;;-148.58;100.00;55229.56;5012395;28;20037;-61
2021/06/10 07:04:38;;;;;;;0.60;0.20;;;;;;;-148.58;100.00;55229.56;5012489;28;20025;-61
2021/06/10 07:07:04;;;;;;;1.52;0.20;;;;;;;-148.58;100.00;55229.56;5013231;28;20026;-60
2021/06/10 07:09:29;;;;;;;0.30;0.03;;;;;;;-148.58;100.00;55229.56;5022099;28;20381;-60
2021/06/10 07:11:54;;;;;;;0.20;0.05;;;;;;;-148.58;100.00;55229.56;5021408;28;20029;-61
2021/06/10 07:14:19;;;;;;;0.00;0.00;;;;;;;-148.58;100.00;55229.56;5022105;28;20108;-61
2021/06/10 07:16:45;;;;;;;0.10;0.10;;;;;;;-148.58;100.00;55229.56;5013119;28;20033;-60
2021/06/10 07:19:11;;;;;;;0.75;0.03;;;;;;;-148.58;100.00;55229.56;4996057;28;20022;-60
2021/06/10 07:21:45;;;;;;;0.50;0.03;;;;;;;-148.58;100.00;55229.56;5013014;28;20048;-60
2021/06/10 07:24:10;;;;;;;1.55;0.45;;;;;;;-148.58;100.00;55229.56;5013318;28;20530;-60
2021/06/10 07:26:36;;;;;;;1.05;0.40;;;;;;;-148.58;100.00;55229.56;5013421;28;20042;-60
2021/06/10 07:29:02;;;;;;;0.20;0.10;;;;;;;-148.58;100.00;55229.56;5013073;28;20026;-60
2021/06/10 07:31:27;;;;;;;0.57;0.35;;;;;;;-148.58;100.00;55229.56;5012966;28;20037;-60
2021/06/10 07:33:53;;;;;;;0.98;0.30;;;;;;;-148.58;100.00;55229.56;5013451;28;20112;-60
2021/06/10 07:36:18;;;;;;;0.95;0.20;;;;;;;-148.58;100.00;55229.56;5013095;28;20041;-60
2021/06/10 07:38:44;;;;;;;1.25;0.40;;;;;;;-148.58;100.00;55229.56;5012337;28;20034;-59
2021/06/10 07:41:09;;;;;;;1.02;0.20;;;;;;;-148.58;100.00;55229.56;4995948;28;20033;-60
2021/06/10 07:43:34;;;;;;;0.30;0.00;;;;;;;-148.58;100.00;55229.56;5012698;28;20034;-60
2021/06/10 07:46:01;;;;;;;0.10;0.10;;;;;;;-148.58;100.00;55229.56;5012100;28;20206;-60
2021/06/10 07:48:29;;;;;;;0.63;0.10;;;;;;;-148.58;100.00;55229.56;5011084;28;20030;-60
2021/06/10 07:50:54;;;;;;;0.77;0.28;;;;;;;-148.58;100.00;55229.56;5010937;28;20049;-60
2021/06/10 07:53:19;;;;;;;0.40;0.20;;;;;;;-148.58;100.00;55229.56;5012400;28;20523;-60
2021/06/10 07:55:46;;;;;;;0.38;0.10;;;;;;;-148.58;100.00;55229.56;5011726;28;20197;-60
2021/06/10 07:58:11;;;;;;;0.22;0.10;;;;;;;-148.58;100.00;55229.56;5010999;28;20068;-59
2021/06/10 08:00:36;;;;;;;0.00;0.00;;;;;;;-148.58;100.00;55229.56;5012760;28;20041;-60
2021/06/10 08:03:01;;;;;;;0.98;0.40;;;;;;;-148.58;100.00;55229.56;5011876;28;20049;-60
2021/06/10 08:05:27;;;;;;;1.70;0.35;;;;;;;-148.58;100.00;55229.56;5013256;28;20033;-60
2021/06/10 08:07:54;;;;;;;0.60;0.30;;;;;;;-148.58;100.00;55229.56;5013328;28;20022;-60
2021/06/10 08:10:20;;;;;;;0.15;0.08;;;;;;;-148.58;100.00;55229.56;5028385;28;20029;-59
2021/06/10 08:12:46;;;;;;;0.50;0.20;;;;;;;-148.58;100.00;55229.56;5025571;28;20030;-59
2021/06/10 08:15:11;;;;;;;0.00;0.00;;;;;;;-148.58;100.00;55229.56;5011015;28;20033;-60
2021/06/10 08:17:37;;;;;;;0.65;0.10;;;;;;;-148.58;100.00;55229.56;5010185;28;20386;-60
2021/06/10 08:20:05;;;;;;;0.43;0.10;;;;;;;-148.58;100.00;55229.56;5019107;28;20109;-60
2021/06/10 08:22:31;;;;;;;0.57;0.10;;;;;;;-148.58;100.00;55229.56;5010187;28;20440;-60
2021/06/10 08:24:56;;;;;;;0.38;0.10;;;;;;;-148.58;100.00;55229.56;5009443;28;20014;-59
2021/06/10 08:27:21;;;;;;;0.47;0.10;;;;;;;-148.58;100.00;55229.56;5010636;28;20072;-60
2021/06/10 08:29:47;;;;;;;0.40;0.20;;;;;;;-148.58;100.00;55229.56;5011084;28;20053;-60
2021/06/10 08:32:13;;;;;;;1.40;0.40;;;;;;;-148.58;100.00;55229.56;5012139;28;20034;-61
2021/06/10 08:34:38;;;;;;;0.60;0.25;;;;;;;-148.58;100.00;55229.56;5012113;28;20037;-60
2021/06/10 08:37:03;;;;;;;0.10;0.10;;;;;;;-148.58;100.00;55229.56;5011363;28;20038;-60
2021/06/10 08:39:29;;;;;;;0.20;0.20;;;;;;;-148.58;100.00;55229.56;5014292;28;20072;-61
2021/06/10 08:41:55;;;;;;;0.60;0.32;;;;;;;-148.58;100.00;55229.56;5009957;28;20538;-60
2021/06/10 08:44:23;;;;;;;0.82;0.43;;;;;;;-148.58;100.00;55229.56;5010873;28;20041;-60
2021/06/10 08:46:50;;;;;;;0.30;0.20;;;;;;;-148.58;100.00;55229.56;5011495;28;20026;-61
2021/06/10 08:49:15;;;;;;;0.35;0.17;;;;;;;-148.58;100.00;55229.56;5021290;28;20046;-61
2021/06/10 08:51:40;;;;;;;0.15;0.10;;;;;;;-148.58;100.00;55229.56;5011322;28;20083;-61
2021/06/10 08:54:06;;;;;;;0.32;0.30;;;;;;;-148.58;100.00;55229.56;5012664;28;20099;-60
2021/06/10 08:56:32;;;;;;;0.60;0.13;;;;;;;-148.58;100.00;55229.56;5012620;28;20097;-60
2021/06/10 08:58:58;;;;;;;0.20;0.20;;;;;;;-148.58;100.00;55229.56;5019183;28;20025;-60
2021/06/10 09:01:24;;;;;;;0.47;0.10;;;;;;;-148.58;100.00;55229.56;5015535;28;20034;-60
2021/06/10 09:03:50;;;;;;;0.25;0.25;;;;;;;-148.58;100.00;55229.56;5011061;28;20036;-59
2021/06/10 09:06:17;;;;;;;0.45;0.20;;;;;;;-148.58;100.00;55229.56;5012600;28;20034;-59
2021/06/10 09:08:46;;;;;;;0.28;0.10;;;;;;;-148.58;100.00;55229.56;5009456;28;20064;-59
2021/06/10 09:11:14;;;;;;;0.20;0.00;;;;;;;-148.58;100.00;55229.56;5011756;28;20029;-59
2021/06/10 09:13:42;;;;;;;0.90;0.30;;;;;;;-148.58;100.00;55229.56;5011048;28;20068;-58
2021/06/10 09:16:28;;;;;;;0.15;0.03;;;;;;;-148.58;100.00;55229.56;5010317;28;20038;-59
2021/06/10 09:18:56;;;;;;;0.40;0.30;;;;;;;-148.58;100.00;55229.56;5006807;28;20022;-57
2021/06/10 09:22:04;;;;;;;0.55;0.20;;;;;;;-148.58;100.00;55229.56;5012920;28;20389;-59
2021/06/10 09:24:39;;;;;;;0.15;0.10;;;;;;;-148.58;100.00;55229.56;4959139;28;20031;-58
2021/06/10 09:27:13;;;;;;;0.10;0.10;;;;;;;-148.58;100.00;55229.56;4951642;29;20046;-59
2021/06/10 09:29:50;;;;;;;2.67;0.60;;;;;;;-148.58;100.00;55229.56;4957461;28;20434;-61
2021/06/10 09:32:18;;;;;;;0.20;0.10;;;;;;;-148.58;100.00;55229.56;4953504;28;20038;-59
2021/06/10 09:34:49;;;;;;;0.20;0.03;;;;;;;-148.58;100.00;55229.56;4952410;28;20051;-60
2021/06/10 09:37:35;;;;;;;0.40;0.22;;;;;;;-148.58;100.00;55229.56;4961864;28;20034;-57
2021/06/10 09:40:06;;;;;;;0.20;0.10;;;;;;;-148.58;100.00;55229.56;4964044;28;20041;-59
2021/06/10 09:42:33;;;;;;;0.00;0.00;;;;;;;-148.58;100.00;55229.56;4951867;28;20039;-57
2021/06/10 09:45:01;;;;;;;0.75;0.20;;;;;;;-148.58;100.00;55229.56;4943135;28;20351;-60
2021/06/10 09:47:36;;;;;;;0.10;0.10;;;;;;;-148.58;100.00;55229.56;4944011;28;20047;-59
2021/06/10 09:50:30;;;;;;;0.22;0.10;;;;;;;-148.58;100.00;55229.56;4938428;29;20353;-58
2021/06/10 09:53:17;;;;;;;0.23;0.10;;;;;;;-148.58;100.00;55229.56;4943586;28;20419;-60
2021/06/10 09:55:55;;;;;;;1.23;0.20;;;;;;;-148.58;100.00;55229.56;4951673;28;20038;-61
2021/06/10 09:58:25;;;;;;;0.60;0.28;;;;;;;-148.58;100.00;55229.56;4948843;28;20616;-59
2021/06/10 10:00:51;;;;;;;0.80;0.20;;;;;;;-148.58;100.00;55229.56;4975182;28;20041;-59
2021/06/10 10:03:43;;;;;;;2.67;0.47;;;;;;;-148.58;100.00;55229.56;5006667;28;20053;-59
2021/06/10 10:06:23;;;;;;;0.90;0.30;;;;;;;-148.58;100.00;55229.56;4994913;28;20060;-58
2021/06/10 10:08:52;;;;;;;0.95;0.38;;;;;;;-148.58;100.00;55229.56;4994944;28;20030;-59
2021/06/10 10:11:19;;;;;;;2.38;0.52;;;;;;;-148.58;100.00;55229.56;4997998;28;20026;-59
2021/06/10 10:13:46;;;;;;;2.50;0.80;;;;;;;-148.58;100.00;55229.56;4993011;28;20398;-59
2021/06/10 10:16:11;;;;;;;1.77;0.45;;;;;;;-148.58;100.00;55229.56;4992658;28;20109;-59
2021/06/10 10:18:38;;;;;;;2.08;0.70;;;;;;;-148.58;100.00;55229.56;4996903;28;20130;-59
2021/06/10 10:21:05;;;;;;;0.30;0.20;;;;;;;-148.58;100.00;55229.56;4990553;28;20121;-60
2021/06/10 10:23:35;;;;;;;0.28;0.28;;;;;;;-148.58;100.00;55229.56;4993454;28;20026;-59
2021/06/10 10:26:05;;;;;;;1.15;0.45;;;;;;;-148.58;100.00;55229.56;4996851;28;20030;-59
2021/06/10 10:28:34;;;;;;;0.30;0.30;;;;;;;-148.58;100.00;55229.56;4993650;28;20053;-59
2021/06/10 10:31:00;;;;;;;0.57;0.40;;;;;;;-148.58;100.00;55229.56;4994527;28;20037;-59
2021/06/10 10:33:26;;;;;;;1.05;0.30;;;;;;;-148.58;100.00;55229.56;4993986;28;20030;-60
2021/06/10 10:35:55;;;;;;;2.08;0.60;;;;;;;-148.58;100.00;55229.56;4993761;28;20030;-60
2021/06/10 10:38:31;;;;;;;0.60;0.40;;;;;;;-148.58;100.00;55229.56;4994784;28;20026;-59
2021/06/10 10:41:03;;;;;;;0.28;0.28;;;;;;;-148.58;100.00;55229.56;4993176;28;20492;-60
2021/06/10 10:43:30;;;;;;;0.30;0.30;;;;;;;-148.58;100.00;55229.56;5008375;28;20038;-60
2021/06/10 10:46:04;;;;;;;0.68;0.40;;;;;;;-148.58;100.00;55229.56;5014414;28;20024;-60
2021/06/10 10:48:36;;;;;;;0.68;0.50;;;;;;;-148.58;100.00;55229.56;5014644;28;20109;-60
2021/06/10 10:51:02;;;;;;;0.60;0.60;;;;;;;-148.58;100.00;55229.56;5014619;28;20022;-60
2021/06/10 10:53:42;;;;;;;0.47;0.47;;;;;;;-148.58;100.00;55229.56;5020178;28;20170;-60
2021/06/10 10:56:09;;;;;;;0.88;0.47;;;;;;;-148.58;100.00;55229.56;5013584;28;20030;-59
2021/06/10 10:58:35;;;;;;;0.50;0.50;;;;;;;-148.58;100.00;55229.56;5013150;28;20036;-60
2021/06/10 11:01:02;;;;;;;0.50;0.30;;;;;;;-148.58;100.00;55229.56;5014202;28;20030;-60
2021/06/10 11:03:29;;;;;;;0.70;0.50;;;;;;;-148.58;100.00;55229.56;5012454;28;20073;-59
2021/06/10 11:05:57;;;;;;;0.65;0.32;;;;;;;-148.58;100.00;55229.56;5011871;28;20025;-59
2021/06/10 11:08:26;;;;;;;0.40;0.40;;;;;;;-148.58;100.00;55229.56;5012953;28;20026;-59
2021/06/10 11:10:59;;;;;;;0.38;0.35;;;;;;;-148.58;100.00;55229.56;5018688;28;20112;-59
2021/06/10 11:13:29;;;;;;;0.90;0.30;;;;;;;-148.58;100.00;55229.56;5009158;28;20037;-60